sensor_id;sensor_type;location;lat;lon;timestamp;temperature;humidity
19017;DHT22;9641;51.494;6.670;2022-12-07T00:00:52;5.70;99.90
19017;DHT22;9641;51.494;6.670;2022-12-07T00:03:21;5.70;99.90
19017;DHT22;9641;51.494;6.670;2022-12-07T00:05:49;5.60;99.90
19017;DHT22;9641;51.494;6.670;2022-12-07T00:08:16;5.70;99.90
19017;DHT22;9641;51.494;6.670;2022-12-07T00:10:43;5.60;99.90
19017;DHT22;9641;51.494;6.670;2022-12-07T00:13:12;5.60;99.90
19017;DHT22;9641;51.494;6.670;2022-12-07T00:15:39;5.50;99.90
19017;DHT22;9641;51.494;6.670;2022-12-07T00:18:06;5.60;99.90
19017;DHT22;9641;51.494;6.670;2022-12-07T00:20:33;5.60;99.90
19017;DHT22;9641;51.494;6.670;2022-12-07T00:23:01;5.70;99.90
19017;DHT22;9641;51.494;6.670;2022-12-07T00:25:28;5.70;99.90
19017;DHT22;9641;51.494;6.670;2022-12-07T00:27:56;5.60;99.90
19017;DHT22;9641;51.494;6.670;2022-12-07T00:30:24;5.60;99.90
19017;DHT22;9641;51.494;6.670;2022-12-07T00:32:51;5.50;99.90
19017;DHT22;9641;51.494;6.670;2022-12-07T00:35:18;5.50;99.90
19017;DHT22;9641;51.494;6.670;2022-12-07T00:37:45;5.40;99.90
19017;DHT22;9641;51.494;6.670;2022-12-07T00:40:13;5.50;99.90
19017;DHT22;9641;51.494;6.670;2022-12-07T00:42:40;5.50;99.90
19017;DHT22;9641;51.494;6.670;2022-12-07T00:45:08;5.50;99.90
19017;DHT22;9641;51.494;6.670;2022-12-07T00:47:35;5.60;99.90
19017;DHT22;9641;51.494;6.670;2022-12-07T00:50:02;5.60;99.90
19017;DHT22;9641;51.494;6.670;2022-12-07T00:52:29;5.60;99.90
19017;DHT22;9641;51.494;6.670;2022-12-07T00:54:56;5.50;99.90
19017;DHT22;9641;51.494;6.670;2022-12-07T00:57:25;5.50;99.90
19017;DHT22;9641;51.494;6.670;2022-12-07T00:59:51;5.40;99.90
19017;DHT22;9641;51.494;6.670;2022-12-07T01:02:21;5.50;99.90
19017;DHT22;9641;51.494;6.670;2022-12-07T01:04:48;5.40;99.90
19017;DHT22;9641;51.494;6.670;2022-12-07T01:07:15;5.30;99.90
19017;DHT22;9641;51.494;6.670;2022-12-07T01:09:42;5.40;99.90
19017;DHT22;9641;51.494;6.670;2022-12-07T01:12:09;5.30;99.90
19017;DHT22;9641;51.494;6.670;2022-12-07T01:14:37;5.40;99.90
19017;DHT22;9641;51.494;6.670;2022-12-07T01:17:04;5.30;99.90
19017;DHT22;9641;51.494;6.670;2022-12-07T01:19:31;5.20;99.90
19017;DHT22;9641;51.494;6.670;2022-12-07T01:21:58;5.20;99.90
19017;DHT22;9641;51.494;6.670;2022-12-07T01:24:25;5.30;99.90
19017;DHT22;9641;51.494;6.670;2022-12-07T01:26:52;5.20;99.90
19017;DHT22;9641;51.494;6.670;2022-12-07T01:29:19;5.20;99.90
19017;DHT22;9641;51.494;6.670;2022-12-07T01:31:49;5.20;99.90
19017;DHT22;9641;51.494;6.670;2022-12-07T01:34:16;5.10;99.90
19017;DHT22;9641;51.494;6.670;2022-12-07T01:36:43;5.10;99.90
19017;DHT22;9641;51.494;6.670;2022-12-07T01:39:10;5.20;99.90
19017;DHT22;9641;51.494;6.670;2022-12-07T01:41:39;5.10;99.90
19017;DHT22;9641;51.494;6.670;2022-12-07T01:44:20;5.10;99.90
19017;DHT22;9641;51.494;6.670;2022-12-07T01:46:50;5.10;99.90
19017;DHT22;9641;51.494;6.670;2022-12-07T01:49:31;5.00;99.90
19017;DHT22;9641;51.494;6.670;2022-12-07T01:52:05;5.10;99.90
19017;DHT22;9641;51.494;6.670;2022-12-07T01:54:34;5.10;99.90
19017;DHT22;9641;51.494;6.670;2022-12-07T01:57:03;5.00;99.90
19017;DHT22;9641;51.494;6.670;2022-12-07T01:59:31;5.00;99.90
19017;DHT22;9641;51.494;6.670;2022-12-07T02:02:01;5.00;99.90
19017;DHT22;9641;51.494;6.670;2022-12-07T02:04:29;5.00;99.90
19017;DHT22;9641;51.494;6.670;2022-12-07T02:06:57;5.00;99.90
19017;DHT22;9641;51.494;6.670;2022-12-07T02:09:24;4.90;99.90
19017;DHT22;9641;51.494;6.670;2022-12-07T02:11:51;4.90;99.90
19017;DHT22;9641;51.494;6.670;2022-12-07T02:14:19;4.80;99.90
19017;DHT22;9641;51.494;6.670;2022-12-07T02:16:59;4.90;99.90
19017;DHT22;9641;51.494;6.670;2022-12-07T02:25:47;5.00;99.90
19017;DHT22;9641;51.494;6.670;2022-12-07T02:28:21;4.90;99.90
19017;DHT22;9641;51.494;6.670;2022-12-07T02:30:57;4.80;99.90
19017;DHT22;9641;51.494;6.670;2022-12-07T02:33:28;4.80;99.90
19017;DHT22;9641;51.494;6.670;2022-12-07T02:36:00;4.70;99.90
19017;DHT22;9641;51.494;6.670;2022-12-07T02:38:34;4.60;99.90
19017;DHT22;9641;51.494;6.670;2022-12-07T02:41:05;4.60;99.90
19017;DHT22;9641;51.494;6.670;2022-12-07T02:43:35;4.50;99.90
19017;DHT22;9641;51.494;6.670;2022-12-07T02:46:09;4.50;99.90
19017;DHT22;9641;51.494;6.670;2022-12-07T02:48:38;4.40;99.90
19017;DHT22;9641;51.494;6.670;2022-12-07T02:51:06;4.40;99.90
19017;DHT22;9641;51.494;6.670;2022-12-07T02:53:36;4.40;99.90
19017;DHT22;9641;51.494;6.670;2022-12-07T02:56:07;4.30;99.90
19017;DHT22;9641;51.494;6.670;2022-12-07T02:58:50;4.10;99.90
19017;DHT22;9641;51.494;6.670;2022-12-07T03:01:28;4.20;99.90
19017;DHT22;9641;51.494;6.670;2022-12-07T03:04:19;4.20;99.90
19017;DHT22;9641;51.494;6.670;2022-12-07T03:06:55;4.20;99.90
19017;DHT22;9641;51.494;6.670;2022-12-07T03:09:30;4.20;99.90
19017;DHT22;9641;51.494;6.670;2022-12-07T03:12:07;4.10;99.90
19017;DHT22;9641;51.494;6.670;2022-12-07T03:14:41;4.10;99.90
19017;DHT22;9641;51.494;6.670;2022-12-07T03:17:14;4.00;99.90
19017;DHT22;9641;51.494;6.670;2022-12-07T03:19:44;4.00;99.90
19017;DHT22;9641;51.494;6.670;2022-12-07T03:22:13;4.00;99.90
19017;DHT22;9641;51.494;6.670;2022-12-07T03:24:45;4.00;99.90
19017;DHT22;9641;51.494;6.670;2022-12-07T03:27:15;4.00;99.90
19017;DHT22;9641;51.494;6.670;2022-12-07T03:29:45;3.90;99.90
19017;DHT22;9641;51.494;6.670;2022-12-07T03:32:23;3.90;99.90
19017;DHT22;9641;51.494;6.670;2022-12-07T03:34:56;3.80;99.90
19017;DHT22;9641;51.494;6.670;2022-12-07T03:37:26;3.80;99.90
19017;DHT22;9641;51.494;6.670;2022-12-07T03:39:58;3.90;99.90
19017;DHT22;9641;51.494;6.670;2022-12-07T03:42:29;4.00;99.90
19017;DHT22;9641;51.494;6.670;2022-12-07T03:44:56;4.00;99.90
19017;DHT22;9641;51.494;6.670;2022-12-07T03:47:29;4.10;99.90
19017;DHT22;9641;51.494;6.670;2022-12-07T03:50:00;4.10;99.90
19017;DHT22;9641;51.494;6.670;2022-12-07T03:52:33;4.20;99.90
19017;DHT22;9641;51.494;6.670;2022-12-07T03:55:05;4.20;99.90
19017;DHT22;9641;51.494;6.670;2022-12-07T03:57:33;4.20;99.90
19017;DHT22;9641;51.494;6.670;2022-12-07T04:00:05;4.20;99.90
19017;DHT22;9641;51.494;6.670;2022-12-07T04:02:42;4.40;99.90
19017;DHT22;9641;51.494;6.670;2022-12-07T04:05:09;4.40;99.90
19017;DHT22;9641;51.494;6.670;2022-12-07T04:07:36;4.40;99.90
19017;DHT22;9641;51.494;6.670;2022-12-07T04:10:04;4.40;99.90
19017;DHT22;9641;51.494;6.670;2022-12-07T04:12:31;4.30;99.90
19017;DHT22;9641;51.494;6.670;2022-12-07T04:14:58;4.30;99.90
19017;DHT22;9641;51.494;6.670;2022-12-07T04:17:25;4.10;99.90
19017;DHT22;9641;51.494;6.670;2022-12-07T04:19:53;4.20;99.90
19017;DHT22;9641;51.494;6.670;2022-12-07T04:22:20;4.10;99.90
19017;DHT22;9641;51.494;6.670;2022-12-07T04:24:47;4.10;99.90
19017;DHT22;9641;51.494;6.670;2022-12-07T04:27:15;4.00;99.90
19017;DHT22;9641;51.494;6.670;2022-12-07T04:29:41;3.80;99.90
19017;DHT22;9641;51.494;6.670;2022-12-07T04:32:08;3.90;99.90
19017;DHT22;9641;51.494;6.670;2022-12-07T04:34:36;3.90;99.90
19017;DHT22;9641;51.494;6.670;2022-12-07T04:37:04;4.00;99.90
19017;DHT22;9641;51.494;6.670;2022-12-07T04:39:32;4.00;99.90
19017;DHT22;9641;51.494;6.670;2022-12-07T04:42:00;4.00;99.90
19017;DHT22;9641;51.494;6.670;2022-12-07T04:44:28;4.00;99.90
19017;DHT22;9641;51.494;6.670;2022-12-07T04:46:55;4.00;99.90
19017;DHT22;9641;51.494;6.670;2022-12-07T04:49:23;4.00;99.90
19017;DHT22;9641;51.494;6.670;2022-12-07T04:51:50;4.00;99.90
19017;DHT22;9641;51.494;6.670;2022-12-07T04:54:19;4.00;99.90
19017;DHT22;9641;51.494;6.670;2022-12-07T04:56:46;4.00;99.90
19017;DHT22;9641;51.494;6.670;2022-12-07T04:59:13;4.10;99.90
19017;DHT22;9641;51.494;6.670;2022-12-07T05:01:41;4.10;99.90
19017;DHT22;9641;51.494;6.670;2022-12-07T05:04:08;4.10;99.90
19017;DHT22;9641;51.494;6.670;2022-12-07T05:06:35;4.10;99.90
19017;DHT22;9641;51.494;6.670;2022-12-07T05:09:03;4.20;99.90
19017;DHT22;9641;51.494;6.670;2022-12-07T05:11:32;4.20;99.90
19017;DHT22;9641;51.494;6.670;2022-12-07T05:14:07;4.20;99.90
19017;DHT22;9641;51.494;6.670;2022-12-07T05:16:34;4.20;99.90
19017;DHT22;9641;51.494;6.670;2022-12-07T05:19:01;4.00;99.90
19017;DHT22;9641;51.494;6.670;2022-12-07T05:21:28;4.10;99.90
19017;DHT22;9641;51.494;6.670;2022-12-07T05:23:55;4.10;99.90
19017;DHT22;9641;51.494;6.670;2022-12-07T05:26:22;4.00;99.90
19017;DHT22;9641;51.494;6.670;2022-12-07T05:28:51;4.10;99.90
19017;DHT22;9641;51.494;6.670;2022-12-07T05:31:19;4.20;99.90
19017;DHT22;9641;51.494;6.670;2022-12-07T05:33:46;4.10;99.90
19017;DHT22;9641;51.494;6.670;2022-12-07T05:36:13;4.20;99.90
19017;DHT22;9641;51.494;6.670;2022-12-07T05:38:40;4.20;99.90
19017;DHT22;9641;51.494;6.670;2022-12-07T05:41:08;4.20;99.90
19017;DHT22;9641;51.494;6.670;2022-12-07T05:43:59;4.20;99.90
19017;DHT22;9641;51.494;6.670;2022-12-07T05:46:26;4.20;99.90
19017;DHT22;9641;51.494;6.670;2022-12-07T05:48:53;4.20;99.90
19017;DHT22;9641;51.494;6.670;2022-12-07T05:51:21;4.20;99.90
19017;DHT22;9641;51.494;6.670;2022-12-07T05:53:48;4.20;99.90
19017;DHT22;9641;51.494;6.670;2022-12-07T05:56:15;4.20;99.90
19017;DHT22;9641;51.494;6.670;2022-12-07T05:58:44;4.20;99.90
19017;DHT22;9641;51.494;6.670;2022-12-07T06:01:40;4.10;99.90
19017;DHT22;9641;51.494;6.670;2022-12-07T06:04:08;4.10;99.90
19017;DHT22;9641;51.494;6.670;2022-12-07T06:06:35;4.10;99.90
19017;DHT22;9641;51.494;6.670;2022-12-07T06:09:02;4.10;99.90
19017;DHT22;9641;51.494;6.670;2022-12-07T06:11:30;4.00;99.90
19017;DHT22;9641;51.494;6.670;2022-12-07T06:14:15;4.00;99.90
19017;DHT22;9641;51.494;6.670;2022-12-07T06:16:44;3.90;99.90
19017;DHT22;9641;51.494;6.670;2022-12-07T06:19:14;3.90;99.90
19017;DHT22;9641;51.494;6.670;2022-12-07T06:21:42;4.00;99.90
19017;DHT22;9641;51.494;6.670;2022-12-07T06:24:11;3.90;99.90
19017;DHT22;9641;51.494;6.670;2022-12-07T06:26:39;3.90;99.90
19017;DHT22;9641;51.494;6.670;2022-12-07T06:29:06;3.90;99.90
19017;DHT22;9641;51.494;6.670;2022-12-07T06:31:34;3.90;99.90
19017;DHT22;9641;51.494;6.670;2022-12-07T06:34:11;3.90;99.90
19017;DHT22;9641;51.494;6.670;2022-12-07T06:36:38;3.90;99.90
19017;DHT22;9641;51.494;6.670;2022-12-07T06:39:06;4.00;99.90
19017;DHT22;9641;51.494;6.670;2022-12-07T06:41:35;4.10;99.90
19017;DHT22;9641;51.494;6.670;2022-12-07T06:44:02;4.10;99.90
19017;DHT22;9641;51.494;6.670;2022-12-07T06:46:31;4.10;99.90
19017;DHT22;9641;51.494;6.670;2022-12-07T06:48:59;4.10;99.90
19017;DHT22;9641;51.494;6.670;2022-12-07T06:51:30;4.20;99.90
19017;DHT22;9641;51.494;6.670;2022-12-07T06:53:57;4.10;99.90
19017;DHT22;9641;51.494;6.670;2022-12-07T06:56:26;4.10;99.90
19017;DHT22;9641;51.494;6.670;2022-12-07T06:58:54;4.00;99.90
19017;DHT22;9641;51.494;6.670;2022-12-07T07:01:22;3.80;99.90
19017;DHT22;9641;51.494;6.670;2022-12-07T07:03:50;3.70;99.90
19017;DHT22;9641;51.494;6.670;2022-12-07T07:06:17;3.70;99.90
19017;DHT22;9641;51.494;6.670;2022-12-07T07:08:46;3.70;99.90
19017;DHT22;9641;51.494;6.670;2022-12-07T07:11:13;3.80;99.90
19017;DHT22;9641;51.494;6.670;2022-12-07T07:13:41;3.90;99.90
19017;DHT22;9641;51.494;6.670;2022-12-07T07:16:09;3.90;99.90
19017;DHT22;9641;51.494;6.670;2022-12-07T07:18:39;3.90;99.90
19017;DHT22;9641;51.494;6.670;2022-12-07T07:21:06;3.80;99.90
19017;DHT22;9641;51.494;6.670;2022-12-07T07:23:53;3.70;99.90
19017;DHT22;9641;51.494;6.670;2022-12-07T07:26:25;3.60;99.90
19017;DHT22;9641;51.494;6.670;2022-12-07T07:28:54;3.60;99.90
19017;DHT22;9641;51.494;6.670;2022-12-07T07:31:21;3.70;99.90
19017;DHT22;9641;51.494;6.670;2022-12-07T07:33:48;3.70;99.90
19017;DHT22;9641;51.494;6.670;2022-12-07T07:36:18;3.80;99.90
19017;DHT22;9641;51.494;6.670;2022-12-07T07:38:50;3.80;99.90
19017;DHT22;9641;51.494;6.670;2022-12-07T07:41:20;3.70;99.90
19017;DHT22;9641;51.494;6.670;2022-12-07T07:43:48;3.70;99.90
19017;DHT22;9641;51.494;6.670;2022-12-07T07:46:17;3.60;99.90
19017;DHT22;9641;51.494;6.670;2022-12-07T07:48:47;3.60;99.90
19017;DHT22;9641;51.494;6.670;2022-12-07T07:51:16;3.60;99.90
19017;DHT22;9641;51.494;6.670;2022-12-07T07:53:45;3.60;99.90
19017;DHT22;9641;51.494;6.670;2022-12-07T07:56:14;3.60;99.90
19017;DHT22;9641;51.494;6.670;2022-12-07T07:58:41;3.60;99.90
19017;DHT22;9641;51.494;6.670;2022-12-07T08:01:09;3.50;99.90
19017;DHT22;9641;51.494;6.670;2022-12-07T08:03:36;3.50;99.90
19017;DHT22;9641;51.494;6.670;2022-12-07T08:06:04;3.50;99.90
19017;DHT22;9641;51.494;6.670;2022-12-07T08:08:33;3.50;99.90
19017;DHT22;9641;51.494;6.670;2022-12-07T08:11:00;3.60;99.90
19017;DHT22;9641;51.494;6.670;2022-12-07T08:13:28;3.50;99.90
19017;DHT22;9641;51.494;6.670;2022-12-07T08:15:59;3.50;99.90
19017;DHT22;9641;51.494;6.670;2022-12-07T08:18:29;3.50;99.90
19017;DHT22;9641;51.494;6.670;2022-12-07T08:20:59;3.50;99.90
19017;DHT22;9641;51.494;6.670;2022-12-07T08:23:26;3.50;99.90
19017;DHT22;9641;51.494;6.670;2022-12-07T08:25:53;3.50;99.90
19017;DHT22;9641;51.494;6.670;2022-12-07T08:28:21;3.60;99.90
19017;DHT22;9641;51.494;6.670;2022-12-07T08:30:49;3.60;99.90
19017;DHT22;9641;51.494;6.670;2022-12-07T08:33:17;3.70;99.90
19017;DHT22;9641;51.494;6.670;2022-12-07T08:35:45;3.80;99.90
19017;DHT22;9641;51.494;6.670;2022-12-07T08:38:13;3.80;99.90
19017;DHT22;9641;51.494;6.670;2022-12-07T08:40:40;3.80;99.90
19017;DHT22;9641;51.494;6.670;2022-12-07T08:43:09;3.80;99.90
19017;DHT22;9641;51.494;6.670;2022-12-07T08:45:36;3.80;99.90
19017;DHT22;9641;51.494;6.670;2022-12-07T08:48:11;3.90;99.90
19017;DHT22;9641;51.494;6.670;2022-12-07T08:50:39;3.80;99.90
19017;DHT22;9641;51.494;6.670;2022-12-07T08:53:07;3.70;99.90
19017;DHT22;9641;51.494;6.670;2022-12-07T08:55:35;3.90;99.90
19017;DHT22;9641;51.494;6.670;2022-12-07T08:58:02;4.00;99.90
19017;DHT22;9641;51.494;6.670;2022-12-07T09:00:38;4.20;99.90
19017;DHT22;9641;51.494;6.670;2022-12-07T09:03:14;4.30;99.90
19017;DHT22;9641;51.494;6.670;2022-12-07T09:05:43;4.40;99.90
19017;DHT22;9641;51.494;6.670;2022-12-07T09:08:13;4.50;99.90
19017;DHT22;9641;51.494;6.670;2022-12-07T09:10:42;4.80;99.90
19017;DHT22;9641;51.494;6.670;2022-12-07T09:13:12;4.90;99.90
19017;DHT22;9641;51.494;6.670;2022-12-07T09:15:39;4.90;99.90
19017;DHT22;9641;51.494;6.670;2022-12-07T09:18:11;4.80;99.90
19017;DHT22;9641;51.494;6.670;2022-12-07T09:20:39;4.80;99.90
19017;DHT22;9641;51.494;6.670;2022-12-07T09:23:07;4.90;99.90
19017;DHT22;9641;51.494;6.670;2022-12-07T09:25:35;4.90;99.90
19017;DHT22;9641;51.494;6.670;2022-12-07T09:28:10;4.90;99.90
19017;DHT22;9641;51.494;6.670;2022-12-07T09:30:37;4.70;99.90
19017;DHT22;9641;51.494;6.670;2022-12-07T09:33:05;4.60;99.90
19017;DHT22;9641;51.494;6.670;2022-12-07T09:35:44;4.60;99.90
19017;DHT22;9641;51.494;6.670;2022-12-07T09:38:12;4.70;99.90
19017;DHT22;9641;51.494;6.670;2022-12-07T09:40:40;4.80;99.90
19017;DHT22;9641;51.494;6.670;2022-12-07T09:43:17;5.00;99.90
19017;DHT22;9641;51.494;6.670;2022-12-07T09:45:47;5.20;99.90
19017;DHT22;9641;51.494;6.670;2022-12-07T09:48:20;5.30;99.90
19017;DHT22;9641;51.494;6.670;2022-12-07T09:50:52;5.40;99.90
19017;DHT22;9641;51.494;6.670;2022-12-07T09:53:28;5.60;99.90
19017;DHT22;9641;51.494;6.670;2022-12-07T09:55:56;5.70;99.90
19017;DHT22;9641;51.494;6.670;2022-12-07T09:58:26;5.70;99.90
19017;DHT22;9641;51.494;6.670;2022-12-07T10:00:55;5.90;99.90
19017;DHT22;9641;51.494;6.670;2022-12-07T10:03:23;6.10;99.90
19017;DHT22;9641;51.494;6.670;2022-12-07T10:05:52;6.10;99.90
19017;DHT22;9641;51.494;6.670;2022-12-07T10:08:20;6.10;99.90
19017;DHT22;9641;51.494;6.670;2022-12-07T10:10:51;6.30;99.90
19017;DHT22;9641;51.494;6.670;2022-12-07T10:13:34;6.60;99.90
19017;DHT22;9641;51.494;6.670;2022-12-07T10:16:05;6.70;93.90
19017;DHT22;9641;51.494;6.670;2022-12-07T10:18:37;7.30;92.30
19017;DHT22;9641;51.494;6.670;2022-12-07T10:21:16;8.30;1.00
19017;DHT22;9641;51.494;6.670;2022-12-07T10:24:00;8.10;1.00
19017;DHT22;9641;51.494;6.670;2022-12-07T10:26:33;7.80;1.00
19017;DHT22;9641;51.494;6.670;2022-12-07T10:29:12;7.90;1.00
19017;DHT22;9641;51.494;6.670;2022-12-07T10:31:51;7.70;1.00
19017;DHT22;9641;51.494;6.670;2022-12-07T10:34:26;7.40;15.50
19017;DHT22;9641;51.494;6.670;2022-12-07T10:37:15;7.30;32.00
19017;DHT22;9641;51.494;6.670;2022-12-07T10:39:57;7.30;32.50
19017;DHT22;9641;51.494;6.670;2022-12-07T10:42:29;7.60;1.20
19017;DHT22;9641;51.494;6.670;2022-12-07T10:45:13;7.70;1.00
19017;DHT22;9641;51.494;6.670;2022-12-07T10:47:55;7.70;1.00
19017;DHT22;9641;51.494;6.670;2022-12-07T10:53:46;7.60;1.00
19017;DHT22;9641;51.494;6.670;2022-12-07T10:56:39;7.40;1.00
19017;DHT22;9641;51.494;6.670;2022-12-07T11:02:57;7.20;15.40
19017;DHT22;9641;51.494;6.670;2022-12-07T11:05:29;7.10;26.40
19017;DHT22;9641;51.494;6.670;2022-12-07T11:08:05;7.00;43.60
19017;DHT22;9641;51.494;6.670;2022-12-07T11:10:44;7.20;42.70
19017;DHT22;9641;51.494;6.670;2022-12-07T11:13:25;7.40;28.80
19017;DHT22;9641;51.494;6.670;2022-12-07T11:19:47;7.80;1.00
19017;DHT22;9641;51.494;6.670;2022-12-07T11:22:49;8.20;25.50
19017;DHT22;9641;51.494;6.670;2022-12-07T11:25:27;10.20;40.50
19017;DHT22;9641;51.494;6.670;2022-12-07T11:28:14;10.90;1.00
19017;DHT22;9641;51.494;6.670;2022-12-07T11:30:50;10.70;1.00
19017;DHT22;9641;51.494;6.670;2022-12-07T11:33:27;9.90;1.00
19017;DHT22;9641;51.494;6.670;2022-12-07T11:36:16;9.30;1.00
19017;DHT22;9641;51.494;6.670;2022-12-07T11:38:52;9.00;1.00
19017;DHT22;9641;51.494;6.670;2022-12-07T11:41:40;9.00;1.00
19017;DHT22;9641;51.494;6.670;2022-12-07T11:44:33;8.60;1.00
19017;DHT22;9641;51.494;6.670;2022-12-07T11:47:15;8.20;1.00
19017;DHT22;9641;51.494;6.670;2022-12-07T11:49:55;7.90;1.00
19017;DHT22;9641;51.494;6.670;2022-12-07T11:52:44;7.60;99.90
19017;DHT22;9641;51.494;6.670;2022-12-07T11:55:21;7.40;1.00
19017;DHT22;9641;51.494;6.670;2022-12-07T11:58:09;7.30;1.00
19017;DHT22;9641;51.494;6.670;2022-12-07T12:01:03;7.30;1.00
19017;DHT22;9641;51.494;6.670;2022-12-07T12:03:51;7.30;1.00
19017;DHT22;9641;51.494;6.670;2022-12-07T12:06:25;7.40;1.00
19017;DHT22;9641;51.494;6.670;2022-12-07T12:08:59;7.40;1.00
19017;DHT22;9641;51.494;6.670;2022-12-07T12:11:46;7.60;1.00
19017;DHT22;9641;51.494;6.670;2022-12-07T12:14:30;7.50;1.00
19017;DHT22;9641;51.494;6.670;2022-12-07T12:17:47;7.40;1.00
19017;DHT22;9641;51.494;6.670;2022-12-07T12:20:23;7.30;1.00
19017;DHT22;9641;51.494;6.670;2022-12-07T12:23:05;7.30;1.00
19017;DHT22;9641;51.494;6.670;2022-12-07T12:25:39;7.30;1.00
19017;DHT22;9641;51.494;6.670;2022-12-07T12:28:26;7.40;1.00
19017;DHT22;9641;51.494;6.670;2022-12-07T12:31:07;7.50;1.00
19017;DHT22;9641;51.494;6.670;2022-12-07T12:33:43;7.60;1.00
19017;DHT22;9641;51.494;6.670;2022-12-07T12:36:43;7.60;1.00
19017;DHT22;9641;51.494;6.670;2022-12-07T12:39:15;7.50;1.00
19017;DHT22;9641;51.494;6.670;2022-12-07T12:42:00;7.30;1.00
19017;DHT22;9641;51.494;6.670;2022-12-07T12:45:22;7.40;1.00
19017;DHT22;9641;51.494;6.670;2022-12-07T12:48:30;7.30;1.00
19017;DHT22;9641;51.494;6.670;2022-12-07T12:54:22;7.20;1.00
19017;DHT22;9641;51.494;6.670;2022-12-07T12:56:58;7.10;1.00
19017;DHT22;9641;51.494;6.670;2022-12-07T12:59:29;7.20;1.00
19017;DHT22;9641;51.494;6.670;2022-12-07T13:02:21;7.30;1.00
19017;DHT22;9641;51.494;6.670;2022-12-07T13:05:17;7.30;1.00
19017;DHT22;9641;51.494;6.670;2022-12-07T13:08:02;7.40;1.00
19017;DHT22;9641;51.494;6.670;2022-12-07T13:10:38;7.40;1.00
19017;DHT22;9641;51.494;6.670;2022-12-07T13:13:30;7.40;1.00
19017;DHT22;9641;51.494;6.670;2022-12-07T13:16:37;7.60;1.00
19017;DHT22;9641;51.494;6.670;2022-12-07T13:19:53;7.60;1.00
19017;DHT22;9641;51.494;6.670;2022-12-07T13:22:55;7.50;1.00
19017;DHT22;9641;51.494;6.670;2022-12-07T13:29:15;7.40;1.00
19017;DHT22;9641;51.494;6.670;2022-12-07T13:31:58;7.30;1.00
19017;DHT22;9641;51.494;6.670;2022-12-07T13:34:50;7.20;1.00
19017;DHT22;9641;51.494;6.670;2022-12-07T13:37:51;7.00;1.00
19017;DHT22;9641;51.494;6.670;2022-12-07T13:40:37;7.00;1.00
19017;DHT22;9641;51.494;6.670;2022-12-07T13:43:20;6.90;1.00
19017;DHT22;9641;51.494;6.670;2022-12-07T13:46:13;7.10;1.00
19017;DHT22;9641;51.494;6.670;2022-12-07T13:49:00;7.30;1.00
19017;DHT22;9641;51.494;6.670;2022-12-07T13:51:36;7.30;1.00
19017;DHT22;9641;51.494;6.670;2022-12-07T13:54:11;7.50;1.00
19017;DHT22;9641;51.494;6.670;2022-12-07T13:57:02;7.70;1.00
19017;DHT22;9641;51.494;6.670;2022-12-07T14:00:34;7.70;1.00
19017;DHT22;9641;51.494;6.670;2022-12-07T14:06:53;8.10;1.00
19017;DHT22;9641;51.494;6.670;2022-12-07T14:09:29;8.10;1.00
19017;DHT22;9641;51.494;6.670;2022-12-07T14:12:07;8.00;1.00
19017;DHT22;9641;51.494;6.670;2022-12-07T14:14:47;7.80;1.00
19017;DHT22;9641;51.494;6.670;2022-12-07T14:17:29;7.50;1.00
19017;DHT22;9641;51.494;6.670;2022-12-07T14:25:47;7.20;1.00
19017;DHT22;9641;51.494;6.670;2022-12-07T14:28:28;7.10;1.00
19017;DHT22;9641;51.494;6.670;2022-12-07T14:30:56;7.10;1.00
19017;DHT22;9641;51.494;6.670;2022-12-07T14:33:25;7.00;1.00
19017;DHT22;9641;51.494;6.670;2022-12-07T14:35:55;6.80;1.00
19017;DHT22;9641;51.494;6.670;2022-12-07T14:38:25;6.70;1.00
19017;DHT22;9641;51.494;6.670;2022-12-07T14:40:53;6.50;1.00
19017;DHT22;9641;51.494;6.670;2022-12-07T14:43:44;6.40;1.00
19017;DHT22;9641;51.494;6.670;2022-12-07T14:46:12;6.30;1.00
19017;DHT22;9641;51.494;6.670;2022-12-07T14:48:39;6.20;1.00
19017;DHT22;9641;51.494;6.670;2022-12-07T14:51:09;6.00;1.00
19017;DHT22;9641;51.494;6.670;2022-12-07T14:53:46;6.10;11.20
19017;DHT22;9641;51.494;6.670;2022-12-07T14:56:14;6.00;10.70
19017;DHT22;9641;51.494;6.670;2022-12-07T14:58:41;5.80;20.70
19017;DHT22;9641;51.494;6.670;2022-12-07T15:01:11;5.80;30.50
19017;DHT22;9641;51.494;6.670;2022-12-07T15:03:41;5.70;46.40
19017;DHT22;9641;51.494;6.670;2022-12-07T15:06:13;5.60;61.40
19017;DHT22;9641;51.494;6.670;2022-12-07T15:08:42;5.60;81.40
19017;DHT22;9641;51.494;6.670;2022-12-07T15:11:11;5.40;87.00
19017;DHT22;9641;51.494;6.670;2022-12-07T15:13:40;5.20;99.90
19017;DHT22;9641;51.494;6.670;2022-12-07T15:16:25;5.20;99.90
19017;DHT22;9641;51.494;6.670;2022-12-07T15:18:54;5.30;99.90
19017;DHT22;9641;51.494;6.670;2022-12-07T15:21:22;5.30;99.90
19017;DHT22;9641;51.494;6.670;2022-12-07T15:23:55;5.30;99.90
19017;DHT22;9641;51.494;6.670;2022-12-07T15:26:26;5.30;99.90
19017;DHT22;9641;51.494;6.670;2022-12-07T15:28:53;5.20;99.90
19017;DHT22;9641;51.494;6.670;2022-12-07T15:31:21;5.20;99.90
19017;DHT22;9641;51.494;6.670;2022-12-07T15:33:48;5.10;99.90
19017;DHT22;9641;51.494;6.670;2022-12-07T15:36:19;5.10;99.90
19017;DHT22;9641;51.494;6.670;2022-12-07T15:38:49;4.90;99.90
19017;DHT22;9641;51.494;6.670;2022-12-07T15:41:18;4.90;99.90
19017;DHT22;9641;51.494;6.670;2022-12-07T15:43:47;4.80;99.90
19017;DHT22;9641;51.494;6.670;2022-12-07T15:46:34;4.90;99.90
19017;DHT22;9641;51.494;6.670;2022-12-07T15:49:03;5.10;99.90
19017;DHT22;9641;51.494;6.670;2022-12-07T15:51:30;5.10;99.90
19017;DHT22;9641;51.494;6.670;2022-12-07T15:53:57;5.10;99.90
19017;DHT22;9641;51.494;6.670;2022-12-07T15:56:26;5.20;99.90
19017;DHT22;9641;51.494;6.670;2022-12-07T15:58:56;5.30;99.90
19017;DHT22;9641;51.494;6.670;2022-12-07T16:01:23;5.40;99.90
19017;DHT22;9641;51.494;6.670;2022-12-07T16:03:51;5.40;99.90
19017;DHT22;9641;51.494;6.670;2022-12-07T16:06:23;5.40;99.90
19017;DHT22;9641;51.494;6.670;2022-12-07T16:08:54;5.30;99.90
19017;DHT22;9641;51.494;6.670;2022-12-07T16:11:21;5.40;99.90
19017;DHT22;9641;51.494;6.670;2022-12-07T16:13:50;5.40;99.90
19017;DHT22;9641;51.494;6.670;2022-12-07T16:16:18;5.40;99.90
19017;DHT22;9641;51.494;6.670;2022-12-07T16:18:49;5.40;99.90
19017;DHT22;9641;51.494;6.670;2022-12-07T16:21:20;5.50;99.90
19017;DHT22;9641;51.494;6.670;2022-12-07T16:23:50;5.60;98.00
19017;DHT22;9641;51.494;6.670;2022-12-07T16:26:21;5.50;99.80
19017;DHT22;9641;51.494;6.670;2022-12-07T16:28:52;5.50;93.60
19017;DHT22;9641;51.494;6.670;2022-12-07T16:31:23;5.50;89.70
19017;DHT22;9641;51.494;6.670;2022-12-07T16:33:54;5.50;95.20
19017;DHT22;9641;51.494;6.670;2022-12-07T16:36:21;5.50;89.40
19017;DHT22;9641;51.494;6.670;2022-12-07T16:38:51;5.50;97.20
19017;DHT22;9641;51.494;6.670;2022-12-07T16:41:21;5.50;90.60
19017;DHT22;9641;51.494;6.670;2022-12-07T16:43:50;5.60;91.00
19017;DHT22;9641;51.494;6.670;2022-12-07T16:46:18;5.60;89.20
19017;DHT22;9641;51.494;6.670;2022-12-07T16:48:45;5.40;96.60
19017;DHT22;9641;51.494;6.670;2022-12-07T16:51:13;5.50;93.90
19017;DHT22;9641;51.494;6.670;2022-12-07T16:53:52;5.60;92.90
19017;DHT22;9641;51.494;6.670;2022-12-07T16:56:21;5.60;90.30
19017;DHT22;9641;51.494;6.670;2022-12-07T16:58:53;5.50;90.20
19017;DHT22;9641;51.494;6.670;2022-12-07T17:01:21;5.50;95.10
19017;DHT22;9641;51.494;6.670;2022-12-07T17:03:49;5.50;96.30
19017;DHT22;9641;51.494;6.670;2022-12-07T17:06:21;5.50;96.80
19017;DHT22;9641;51.494;6.670;2022-12-07T17:08:50;5.50;99.10
19017;DHT22;9641;51.494;6.670;2022-12-07T17:11:20;5.50;99.90
19017;DHT22;9641;51.494;6.670;2022-12-07T17:13:48;5.40;96.70